Time;durP1;ratioP1;P1;durP2;ratioP2;P2;SDS_P1;SDS_P2;PMS_P1;PMS_P2;Temp;Humidity;BMP_temperature;BMP_pressure;BME280_temperature;BME280_humidity;BME280_pressure;Samples;Min_cycle;Max_cycle;Signal;HPM_P1;HPM_P2
2023/09/09 00:01:57;;;;;;;18.38;10.02;;;15.00;88.10;;;;;;4953939;28;20551;-77
2023/09/09 00:04:24;;;;;;;18.40;10.68;;;15.00;88.20;;;;;;4950291;28;20097;-77
2023/09/09 00:06:51;;;;;;;20.92;10.13;;;14.90;88.30;;;;;;4951056;28;20465;-78
2023/09/09 00:09:18;;;;;;;18.25;11.32;;;14.90;88.10;;;;;;4961423;28;20141;-77
2023/09/09 00:11:45;;;;;;;16.92;10.90;;;14.80;88.30;;;;;;4964674;28;20109;-78
2023/09/09 00:14:13;;;;;;;17.25;12.70;;;14.80;88.60;;;;;;4960874;28;20074;-77
2023/09/09 00:16:40;;;;;;;21.98;12.80;;;14.80;89.10;;;;;;4955724;28;20086;-77
2023/09/09 00:19:07;;;;;;;25.25;13.10;;;14.80;89.00;;;;;;4957935;28;20066;-77
2023/09/09 00:21:34;;;;;;;19.00;12.38;;;14.80;89.50;;;;;;4952476;28;20055;-77
2023/09/09 00:24:01;;;;;;;18.88;11.98;;;14.80;89.50;;;;;;4953834;28;20051;-77
2023/09/09 00:26:28;;;;;;;17.15;12.15;;;14.80;89.70;;;;;;4954644;28;20126;-78
2023/09/09 00:28:55;;;;;;;19.63;11.60;;;14.80;89.40;;;;;;4957724;28;20185;-77
2023/09/09 00:31:23;;;;;;;20.55;12.05;;;14.70;89.30;;;;;;4938310;28;20078;-77
2023/09/09 00:33:50;;;;;;;18.30;11.40;;;14.70;89.70;;;;;;4956658;28;20384;-78
2023/09/09 00:36:17;;;;;;;19.23;12.90;;;14.70;89.70;;;;;;4960390;28;20051;-77
2023/09/09 00:38:43;;;;;;;19.27;11.07;;;14.70;89.80;;;;;;4967657;28;20113;-77
2023/09/09 00:41:17;;;;;;;19.38;12.00;;;14.70;90.10;;;;;;4971889;28;20113;-77
2023/09/09 00:43:49;;;;;;;17.98;12.90;;;14.70;90.10;;;;;;4964211;28;20059;-77
2023/09/09 00:46:17;;;;;;;20.45;12.60;;;14.60;89.70;;;;;;4962007;28;20170;-77
2023/09/09 00:48:44;;;;;;;22.02;12.77;;;14.60;89.60;;;;;;4957639;28;20057;-77
2023/09/09 00:51:12;;;;;;;23.55;12.57;;;14.50;89.70;;;;;;4954533;28;20130;-77
2023/09/09 00:53:40;;;;;;;23.70;13.27;;;14.50;89.90;;;;;;4959808;28;20054;-77
2023/09/09 00:56:08;;;;;;;20.58;13.20;;;14.50;90.40;;;;;;4957580;28;20134;-77
2023/09/09 00:58:35;;;;;;;19.35;12.30;;;14.40;90.20;;;;;;4956644;28;20736;-77
2023/09/09 01:01:05;;;;;;;18.95;11.93;;;14.50;90.30;;;;;;4960722;28;20413;-77
2023/09/09 01:03:33;;;;;;;22.00;11.77;;;14.40;90.70;;;;;;4953475;28;20055;-77
2023/09/09 01:06:01;;;;;;;16.10;10.50;;;14.40;90.20;;;;;;4952775;28;20864;-77
2023/09/09 01:08:29;;;;;;;17.40;11.82;;;14.30;90.90;;;;;;4962946;28;20043;-77
2023/09/09 01:10:57;;;;;;;18.38;11.60;;;14.30;90.80;;;;;;4953529;28;20273;-77
2023/09/09 01:13:24;;;;;;;18.35;12.20;;;14.30;90.70;;;;;;4940800;28;20101;-77
2023/09/09 01:15:52;;;;;;;21.30;11.88;;;14.30;90.90;;;;;;4946057;28;20050;-77
2023/09/09 01:18:19;;;;;;;19.75;11.75;;;14.20;91.10;;;;;;4953158;28;20136;-77
2023/09/09 01:20:55;;;;;;;19.10;11.30;;;14.20;91.50;;;;;;4956872;28;20051;-77
2023/09/09 01:23:21;;;;;;;18.13;11.55;;;14.20;91.70;;;;;;4955537;28;20055;-77
2023/09/09 01:25:48;;;;;;;17.60;10.55;;;14.10;91.60;;;;;;4954261;28;20059;-77
2023/09/09 01:28:19;;;;;;;17.42;11.38;;;14.10;91.80;;;;;;4954559;28;20043;-77
2023/09/09 01:30:45;;;;;;;16.77;11.85;;;14.10;91.70;;;;;;4942559;28;20059;-77
2023/09/09 01:33:12;;;;;;;20.10;12.68;;;14.10;91.50;;;;;;4962270;28;20055;-77
2023/09/09 01:35:39;;;;;;;23.65;12.60;;;14.00;92.20;;;;;;4954755;28;20054;-77
2023/09/09 01:38:06;;;;;;;18.95;11.18;;;14.00;92.40;;;;;;4954697;28;20769;-77
2023/09/09 01:40:33;;;;;;;20.45;12.45;;;14.00;92.00;;;;;;4956757;28;20074;-77
2023/09/09 01:43:00;;;;;;;20.10;12.68;;;14.00;92.30;;;;;;4955318;28;20078;-77
2023/09/09 01:45:27;;;;;;;18.65;12.68;;;14.00;92.20;;;;;;4961396;28;20059;-77
2023/09/09 01:47:53;;;;;;;21.00;12.48;;;14.00;92.90;;;;;;4933918;28;20058;-77
2023/09/09 01:50:20;;;;;;;19.60;12.65;;;14.00;93.00;;;;;;4950127;28;20052;-77
2023/09/09 01:52:47;;;;;;;19.42;12.30;;;14.00;93.20;;;;;;4937596;28;20149;-76
2023/09/09 01:55:14;;;;;;;17.48;11.57;;;13.90;93.20;;;;;;4960655;28;20058;-77
2023/09/09 01:57:41;;;;;;;22.33;12.23;;;13.90;93.30;;;;;;4938213;28;20469;-76
2023/09/09 02:00:09;;;;;;;21.58;12.43;;;13.90;93.30;;;;;;4951135;28;20515;-77
2023/09/09 02:02:36;;;;;;;26.38;12.45;;;13.90;93.30;;;;;;4952357;28;20126;-77
2023/09/09 02:05:03;;;;;;;20.23;12.45;;;13.90;93.50;;;;;;4959567;28;20047;-77
2023/09/09 02:07:30;;;;;;;19.10;12.18;;;13.90;93.80;;;;;;4951637;28;20077;-77
2023/09/09 02:09:57;;;;;;;18.42;12.57;;;13.90;93.80;;;;;;4961537;28;20113;-77
2023/09/09 02:12:24;;;;;;;20.08;13.43;;;13.90;94.00;;;;;;4969586;28;20504;-77
2023/09/09 02:14:51;;;;;;;21.55;11.93;;;13.80;94.40;;;;;;4949513;28;20047;-76
2023/09/09 02:17:18;;;;;;;22.05;11.50;;;13.80;94.50;;;;;;4968036;28;20079;-77
2023/09/09 02:19:45;;;;;;;18.45;11.32;;;13.80;94.40;;;;;;4957520;28;20054;-77
2023/09/09 02:22:11;;;;;;;20.30;11.52;;;13.80;94.30;;;;;;4945926;28;20094;-77
2023/09/09 02:24:38;;;;;;;18.65;12.45;;;13.80;94.40;;;;;;4964714;28;20109;-77
2023/09/09 02:27:05;;;;;;;19.33;12.13;;;13.70;94.30;;;;;;4944189;28;20842;-77
2023/09/09 02:29:32;;;;;;;20.48;12.52;;;13.70;94.60;;;;;;4958152;28;20047;-77
2023/09/09 02:31:59;;;;;;;28.63;12.02;;;13.70;94.70;;;;;;4958515;28;20082;-77
2023/09/09 02:34:26;;;;;;;24.20;12.75;;;13.70;94.70;;;;;;4954387;28;20134;-77
2023/09/09 02:37:17;;;;;;;18.08;12.32;;;13.60;94.70;;;;;;4959674;28;20058;-71
2023/09/09 02:39:45;;;;;;;22.92;12.80;;;13.60;95.20;;;;;;4949623;28;20544;-71
2023/09/09 02:42:14;;;;;;;19.90;11.88;;;13.60;95.00;;;;;;4956550;28;20059;-71
2023/09/09 02:44:44;;;;;;;19.90;12.68;;;13.60;94.90;;;;;;4941419;28;20058;-71
2023/09/09 02:47:12;;;;;;;20.08;11.95;;;13.60;94.40;;;;;;4969238;28;20492;-70
2023/09/09 02:49:40;;;;;;;24.67;11.90;;;13.50;94.40;;;;;;4955771;28;20047;-70
2023/09/09 02:52:07;;;;;;;15.65;10.98;;;13.50;94.30;;;;;;4959060;28;20941;-70
2023/09/09 02:54:35;;;;;;;18.25;11.70;;;13.40;94.40;;;;;;4939956;28;20050;-70
2023/09/09 02:57:03;;;;;;;20.15;12.13;;;13.40;94.60;;;;;;4957956;28;20138;-70
2023/09/09 02:59:35;;;;;;;21.95;12.63;;;13.40;94.60;;;;;;4966424;28;20054;-70
2023/09/09 03:02:03;;;;;;;18.73;11.65;;;13.30;94.40;;;;;;4934859;28;20783;-70
2023/09/09 03:04:29;;;;;;;24.73;12.38;;;13.30;94.60;;;;;;4955088;28;20157;-70
2023/09/09 03:06:56;;;;;;;19.13;12.15;;;13.30;94.20;;;;;;4931094;28;20051;-70
2023/09/09 03:09:25;;;;;;;25.40;12.40;;;13.20;94.40;;;;;;4949014;28;20079;-71
2023/09/09 03:11:53;;;;;;;23.40;12.40;;;13.20;94.40;;;;;;4932741;28;20053;-70
2023/09/09 03:14:21;;;;;;;19.23;11.77;;;13.20;94.60;;;;;;4938683;28;20047;-77
2023/09/09 03:16:48;;;;;;;21.80;11.60;;;13.10;94.20;;;;;;4950780;28;20051;-77
2023/09/09 03:19:16;;;;;;;24.50;12.77;;;13.10;94.20;;;;;;4955970;28;20050;-77
2023/09/09 03:21:43;;;;;;;22.65;12.57;;;13.10;95.10;;;;;;4962548;28;20553;-77
2023/09/09 03:24:10;;;;;;;24.08;12.20;;;13.00;94.50;;;;;;4937069;28;20431;-76
2023/09/09 03:26:37;;;;;;;22.73;12.50;;;13.00;94.60;;;;;;4938052;28;20047;-77
2023/09/09 03:29:04;;;;;;;21.33;12.18;;;13.00;94.90;;;;;;4944218;28;20066;-77
2023/09/09 03:31:31;;;;;;;19.83;12.40;;;12.90;94.60;;;;;;4964653;28;20108;-77
2023/09/09 03:33:57;;;;;;;17.20;11.38;;;12.90;94.90;;;;;;4946106;28;20054;-77
2023/09/09 03:36:24;;;;;;;19.00;12.23;;;12.90;94.80;;;;;;4959914;28;20061;-77
2023/09/09 03:38:51;;;;;;;19.95;12.52;;;12.80;94.50;;;;;;4935425;28;20075;-77
2023/09/09 03:41:18;;;;;;;20.08;11.98;;;12.80;95.00;;;;;;4940497;28;20078;-77
2023/09/09 03:43:46;;;;;;;27.83;12.52;;;;;;;;;;4967790;28;20051;-77
2023/09/09 03:46:13;;;;;;;27.30;13.35;;;12.80;94.70;;;;;;4965957;28;20715;-77
2023/09/09 03:48:39;;;;;;;25.95;12.73;;;12.80;95.40;;;;;;4965413;28;20042;-77
2023/09/09 03:51:06;;;;;;;23.20;13.63;;;12.80;95.00;;;;;;4956953;28;20051;-76
2023/09/09 03:53:33;;;;;;;26.70;13.05;;;12.70;95.10;;;;;;4957780;28;20051;-76
2023/09/09 03:56:01;;;;;;;23.27;13.23;;;12.70;95.10;;;;;;4960565;28;20050;-76
2023/09/09 03:58:28;;;;;;;23.50;12.52;;;12.70;95.00;;;;;;4957653;28;20058;-77
2023/09/09 04:01:21;;;;;;;23.83;12.77;;;12.70;95.30;;;;;;4955811;28;20055;-77
2023/09/09 04:03:48;;;;;;;24.17;12.65;;;12.70;95.40;;;;;;4954229;28;20082;-76
2023/09/09 04:06:17;;;;;;;21.85;14.10;;;12.70;95.60;;;;;;4940478;28;20461;-76
2023/09/09 04:08:45;;;;;;;24.38;12.98;;;12.70;95.70;;;;;;4938121;28;20722;-71
2023/09/09 04:11:12;;;;;;;21.80;12.95;;;12.70;95.80;;;;;;4944906;28;20054;-71
2023/09/09 04:13:40;;;;;;;26.42;14.15;;;12.70;96.00;;;;;;4961587;28;20078;-71
2023/09/09 04:16:08;;;;;;;23.30;12.82;;;12.70;96.30;;;;;;4957196;28;20063;-70
2023/09/09 04:18:35;;;;;;;24.90;13.57;;;12.70;96.50;;;;;;4932030;28;20061;-71
2023/09/09 04:21:12;;;;;;;21.95;13.60;;;12.70;96.50;;;;;;4940916;28;20702;-70
2023/09/09 04:23:39;;;;;;;26.67;14.43;;;12.70;96.60;;;;;;4939795;28;20082;-71
2023/09/09 04:26:06;;;;;;;23.25;13.45;;;12.70;96.70;;;;;;4953108;28;20059;-71
2023/09/09 04:28:33;;;;;;;22.33;13.55;;;12.70;96.90;;;;;;4955055;28;20054;-70
2023/09/09 04:31:00;;;;;;;20.02;13.25;;;12.70;96.70;;;;;;4956470;28;20066;-71
2023/09/09 04:33:27;;;;;;;20.55;13.43;;;12.70;96.40;;;;;;4963097;28;20142;-70
2023/09/09 04:35:54;;;;;;;22.88;13.95;;;12.70;96.50;;;;;;4935540;28;20082;-70
2023/09/09 04:38:23;;;;;;;21.40;12.95;;;12.60;96.60;;;;;;4957085;28;20046;-70
2023/09/09 04:40:50;;;;;;;22.73;12.93;;;12.60;96.50;;;;;;4971101;28;20097;-70
2023/09/09 04:43:18;;;;;;;23.00;13.75;;;12.60;96.40;;;;;;4939086;28;20130;-71
2023/09/09 04:45:45;;;;;;;25.13;13.07;;;12.60;96.30;;;;;;4930908;28;20127;-70
2023/09/09 04:48:12;;;;;;;21.92;14.35;;;12.60;96.80;;;;;;4958073;28;20042;-70
2023/09/09 04:50:39;;;;;;;20.27;12.77;;;12.60;96.70;;;;;;4949188;28;20067;-70
2023/09/09 04:53:07;;;;;;;21.13;13.15;;;12.60;97.10;;;;;;4954503;28;20150;-70
2023/09/09 04:55:34;;;;;;;22.83;13.77;;;12.60;96.90;;;;;;4983204;23;20251;-70
2023/09/09 04:58:02;;;;;;;21.23;13.40;;;12.60;97.30;;;;;;4984638;28;20053;-70
2023/09/09 05:00:29;;;;;;;29.58;14.55;;;12.70;97.30;;;;;;4981448;28;20702;-71
2023/09/09 05:02:56;;;;;;;21.48;13.77;;;12.70;97.20;;;;;;5002106;28;20053;-70
2023/09/09 05:05:23;;;;;;;23.13;14.23;;;12.70;97.30;;;;;;4997664;28;20501;-70
2023/09/09 05:07:50;;;;;;;21.77;13.93;;;12.70;97.50;;;;;;5005728;28;20041;-70
2023/09/09 05:10:18;;;;;;;24.67;14.02;;;12.70;97.50;;;;;;4979076;28;20177;-70
2023/09/09 05:12:45;;;;;;;23.67;14.40;;;12.80;97.70;;;;;;4996273;28;20098;-70
2023/09/09 05:15:13;;;;;;;22.92;14.43;;;12.80;97.70;;;;;;4991057;28;20050;-70
2023/09/09 05:17:40;;;;;;;24.90;14.65;;;12.80;98.00;;;;;;4996706;28;20065;-70
2023/09/09 05:20:08;;;;;;;24.55;14.85;;;12.90;98.20;;;;;;5004357;28;21806;-70
2023/09/09 05:22:35;;;;;;;25.38;14.50;;;12.90;98.30;;;;;;5006000;28;20486;-70
2023/09/09 05:25:02;;;;;;;27.08;15.10;;;13.00;98.30;;;;;;4995339;28;20124;-70
2023/09/09 05:27:29;;;;;;;24.45;14.93;;;13.00;98.30;;;;;;5005674;28;20103;-70
2023/09/09 05:29:56;;;;;;;23.50;14.98;;;13.10;98.30;;;;;;4982878;28;20050;-70
2023/09/09 05:32:23;;;;;;;26.65;15.50;;;13.20;98.30;;;;;;4991791;28;20058;-70
2023/09/09 05:34:50;;;;;;;23.42;15.43;;;13.20;98.20;;;;;;5004253;28;20114;-70
2023/09/09 05:37:17;;;;;;;27.02;14.73;;;13.30;98.40;;;;;;5001593;28;20466;-70
2023/09/09 05:39:44;;;;;;;30.05;15.95;;;13.40;98.50;;;;;;4997521;28;20120;-70
2023/09/09 05:42:11;;;;;;;24.70;15.88;;;13.50;98.40;;;;;;5009416;28;20061;-70
2023/09/09 05:44:38;;;;;;;26.33;15.65;;;13.60;98.60;;;;;;4978528;28;20160;-70
2023/09/09 05:47:06;;;;;;;25.83;16.45;;;13.70;98.50;;;;;;4982246;28;20128;-70
2023/09/09 05:49:34;;;;;;;31.92;16.77;;;13.80;98.70;;;;;;5004805;28;20718;-70
2023/09/09 05:52:06;;;;;;;28.98;16.08;;;13.90;98.60;;;;;;4997110;28;20613;-70
2023/09/09 05:54:34;;;;;;;27.10;17.40;;;14.00;98.50;;;;;;4998292;28;20050;-70
2023/09/09 05:57:01;;;;;;;29.58;16.83;;;14.10;98.50;;;;;;4996494;28;20138;-70
2023/09/09 05:59:27;;;;;;;33.60;17.40;;;14.30;98.70;;;;;;4999443;28;20056;-70
2023/09/09 06:01:54;;;;;;;32.53;17.17;;;14.40;98.50;;;;;;4974034;28;20049;-70
2023/09/09 06:04:21;;;;;;;29.83;17.55;;;14.50;98.50;;;;;;5001356;28;20068;-70
2023/09/09 06:06:49;;;;;;;28.88;16.73;;;14.70;98.40;;;;;;4991708;28;20050;-70
2023/09/09 06:09:16;;;;;;;26.52;16.58;;;14.80;98.20;;;;;;5001206;28;20149;-70
2023/09/09 06:11:43;;;;;;;56.50;20.08;;;14.90;98.30;;;;;;4990083;28;20057;-69
2023/09/09 06:14:10;;;;;;;28.27;17.00;;;15.10;99.00;;;;;;5002885;28;20084;-70
2023/09/09 06:16:36;;;;;;;27.15;17.75;;;15.30;99.20;;;;;;5006829;28;20482;-70
2023/09/09 06:19:03;;;;;;;30.85;18.50;;;15.40;99.20;;;;;;4982891;28;20422;-70
2023/09/09 06:21:30;;;;;;;35.40;17.02;;;15.60;99.30;;;;;;4985234;28;20049;-70
2023/09/09 06:23:57;;;;;;;24.15;16.17;;;15.90;99.70;;;;;;4980006;28;20436;-70
2023/09/09 06:26:25;;;;;;;29.67;16.98;;;16.30;99.10;;;;;;4998892;28;20065;-70
2023/09/09 06:28:52;;;;;;;25.25;15.52;;;16.70;98.00;;;;;;4995369;28;20103;-71
2023/09/09 06:31:19;;;;;;;23.80;15.32;;;17.00;96.60;;;;;;5000265;28;20060;-71
2023/09/09 06:33:46;;;;;;;23.90;15.90;;;17.40;94.90;;;;;;5007760;28;20135;-70
2023/09/09 06:36:13;;;;;;;23.48;14.70;;;17.70;93.50;;;;;;5000453;28;20651;-71
2023/09/09 06:38:40;;;;;;;24.90;14.68;;;18.10;91.20;;;;;;4996216;28;20085;-71
2023/09/09 06:41:07;;;;;;;20.45;13.80;;;18.30;89.40;;;;;;4989309;28;20058;-70
2023/09/09 06:43:34;;;;;;;20.48;12.82;;;18.60;89.90;;;;;;4984869;28;20053;-71
2023/09/09 06:46:02;;;;;;;22.02;12.50;;;18.90;88.00;;;;;;4974734;28;20053;-72
2023/09/09 06:48:30;;;;;;;20.85;11.23;;;19.20;86.80;;;;;;4988682;28;20581;-71
2023/09/09 06:50:57;;;;;;;16.52;11.02;;;19.60;84.60;;;;;;4992680;28;20173;-71
2023/09/09 06:53:24;;;;;;;16.35;10.27;;;19.80;83.30;;;;;;4977099;28;20137;-71
2023/09/09 06:55:51;;;;;;;18.27;10.70;;;20.10;81.30;;;;;;4994067;28;20725;-70
2023/09/09 06:58:18;;;;;;;21.65;11.40;;;20.30;81.50;;;;;;4996491;28;20082;-70
2023/09/09 07:00:52;;;;;;;14.98;10.10;;;20.60;80.70;;;;;;4991874;28;20046;-71
2023/09/09 07:03:22;;;;;;;17.77;10.23;;;21.00;79.10;;;;;;4993430;28;20164;-70
2023/09/09 07:05:49;;;;;;;16.60;11.00;;;21.20;78.20;;;;;;4994219;28;20064;-70
2023/09/09 07:08:57;;;;;;;18.55;10.82;;;21.40;77.20;;;;;;5001385;28;20046;-70
2023/09/09 07:11:24;;;;;;;13.90;9.70;;;21.60;77.10;;;;;;4988659;28;20042;-76
2023/09/09 07:13:51;;;;;;;16.27;9.65;;;21.90;76.20;;;;;;5008392;28;20123;-75
2023/09/09 07:16:18;;;;;;;17.38;9.25;;;22.20;74.80;;;;;;5000891;28;20046;-74
2023/09/09 07:18:45;;;;;;;17.58;8.70;;;22.60;74.00;;;;;;4998077;28;20050;-74
2023/09/09 07:21:12;;;;;;;16.55;9.30;;;23.00;72.50;;;;;;5008628;28;20545;-74
2023/09/09 07:23:39;;;;;;;14.13;9.27;;;23.30;71.40;;;;;;4993864;28;20102;-75
2023/09/09 07:26:06;;;;;;;15.73;8.98;;;23.70;71.80;;;;;;5008309;28;20127;-75
2023/09/09 07:28:33;;;;;;;16.27;7.95;;;24.00;70.40;;;;;;5001725;28;20042;-74
2023/09/09 07:31:02;;;;;;;11.90;7.95;;;24.30;68.10;;;;;;4985099;28;20053;-74
2023/09/09 07:33:29;;;;;;;12.10;8.93;;;24.60;69.00;;;;;;4980478;28;20150;-74
2023/09/09 07:35:56;;;;;;;13.95;8.40;;;24.90;67.10;;;;;;5007517;23;20074;-70
2023/09/09 07:38:23;;;;;;;14.15;8.50;;;25.10;65.80;;;;;;4967466;28;20551;-70
2023/09/09 07:41:01;;;;;;;11.70;8.23;;;25.30;66.80;;;;;;4968362;28;20187;-70
2023/09/09 07:43:28;;;;;;;10.55;7.70;;;25.90;64.60;;;;;;4948826;28;20046;-71
2023/09/09 07:45:55;;;;;;;10.00;7.88;;;26.60;63.30;;;;;;4970515;28;20047;-70
2023/09/09 07:48:22;;;;;;;15.68;8.07;;;27.40;62.00;;;;;;4966182;28;20613;-70
2023/09/09 07:50:50;;;;;;;10.45;7.57;;;28.10;59.90;;;;;;4970731;28;20751;-70
2023/09/09 07:53:19;;;;;;;11.88;7.75;;;28.50;57.60;;;;;;4947470;28;20043;-70
2023/09/09 07:55:49;;;;;;;11.45;7.20;;;29.10;57.80;;;;;;4951078;28;20158;-70
2023/09/09 07:58:18;;;;;;;11.93;7.25;;;29.30;57.80;;;;;;4964932;28;20113;-70
2023/09/09 08:00:46;;;;;;;17.30;7.25;;;29.60;56.20;;;;;;4950796;28;20066;-70
2023/09/09 08:03:16;;;;;;;8.45;6.60;;;29.90;56.00;;;;;;4948973;28;20121;-70
2023/09/09 08:05:43;;;;;;;8.95;6.28;;;29.90;54.90;;;;;;4966319;28;20047;-70
2023/09/09 08:08:10;;;;;;;14.10;6.50;;;30.00;54.80;;;;;;4951732;28;20164;-70
2023/09/09 08:10:37;;;;;;;11.65;6.40;;;29.90;55.10;;;;;;4951025;28;20488;-70
2023/09/09 08:13:04;;;;;;;10.20;6.45;;;30.00;55.10;;;;;;4962712;28;20058;-70
2023/09/09 08:15:31;;;;;;;9.20;6.15;;;30.00;55.90;;;;;;4970085;28;20134;-71
2023/09/09 08:18:01;;;;;;;19.77;7.35;;;29.90;54.90;;;;;;4944861;28;20105;-70
2023/09/09 08:20:28;;;;;;;12.35;6.75;;;29.80;55.00;;;;;;4972976;28;20054;-71
2023/09/09 08:22:55;;;;;;;7.82;5.68;;;29.40;57.00;;;;;;4947715;28;20107;-70
2023/09/09 08:25:22;;;;;;;10.88;6.50;;;29.40;56.00;;;;;;4946252;28;20109;-72
2023/09/09 08:27:49;;;;;;;12.07;6.68;;;29.40;56.30;;;;;;4962429;28;20105;-71
2023/09/09 08:30:17;;;;;;;12.52;6.70;;;29.70;55.50;;;;;;4964311;28;20046;-71
2023/09/09 08:32:44;;;;;;;8.65;6.03;;;30.00;54.50;;;;;;4967915;28;20412;-71
2023/09/09 08:35:10;;;;;;;21.90;7.68;;;30.40;53.80;;;;;;4948689;28;20893;-71
2023/09/09 08:37:37;;;;;;;13.45;6.05;;;30.50;53.90;;;;;;4968199;28;20532;-71
2023/09/09 08:40:05;;;;;;;10.85;6.68;;;30.70;52.60;;;;;;4967120;28;20086;-71
2023/09/09 08:42:44;;;;;;;8.25;6.32;;;31.00;53.50;;;;;;4971956;28;20607;-71
2023/09/09 08:45:43;;;;;;;10.23;6.63;;;31.20;52.20;;;;;;4963351;28;20082;-71
2023/09/09 08:48:17;;;;;;;13.63;5.70;;;31.60;51.80;;;;;;4947061;28;20067;-71
2023/09/09 08:50:47;;;;;;;12.40;5.68;;;31.30;51.40;;;;;;4963956;28;20050;-71
2023/09/09 08:53:16;;;;;;;10.63;6.15;;;31.50;50.90;;;;;;4965190;28;20069;-71
2023/09/09 08:55:43;;;;;;;9.95;6.03;;;31.50;51.10;;;;;;4967646;28;20042;-71
2023/09/09 08:58:10;;;;;;;8.75;5.90;;;31.50;50.30;;;;;;4945953;28;20562;-71
2023/09/09 09:00:37;;;;;;;7.30;5.40;;;31.80;50.20;;;;;;4949597;28;20129;-71
2023/09/09 09:03:05;;;;;;;7.43;5.50;;;31.80;49.50;;;;;;4966076;28;20594;-71
2023/09/09 09:05:33;;;;;;;32.15;6.30;;;32.40;50.30;;;;;;4948456;28;20520;-71
2023/09/09 09:08:01;;;;;;;12.52;6.20;;;32.70;47.70;;;;;;4967443;28;20050;-71
2023/09/09 09:10:28;;;;;;;9.82;5.20;;;32.90;48.70;;;;;;4965910;28;20539;-71
2023/09/09 09:12:55;;;;;;;21.85;6.32;;;33.30;46.70;;;;;;4959955;28;20113;-71
2023/09/09 09:15:23;;;;;;;7.63;5.18;;;33.50;44.60;;;;;;4963244;28;20451;-71
2023/09/09 09:17:51;;;;;;;6.68;5.13;;;33.70;45.80;;;;;;4946033;28;20409;-71
2023/09/09 09:20:33;;;;;;;13.25;5.40;;;34.00;46.20;;;;;;4966851;28;20637;-71
2023/09/09 09:23:02;;;;;;;12.00;5.28;;;34.20;45.20;;;;;;4961628;28;20062;-71
2023/09/09 09:25:42;;;;;;;5.82;5.03;;;34.80;44.00;;;;;;4964592;28;20050;-72
2023/09/09 09:28:09;;;;;;;8.63;5.15;;;35.10;43.00;;;;;;4963930;28;20178;-72
2023/09/09 09:30:36;;;;;;;11.43;5.07;;;35.50;41.80;;;;;;4948197;28;20051;-72
2023/09/09 09:33:03;;;;;;;10.85;5.05;;;36.10;41.50;;;;;;4962672;28;20109;-72
2023/09/09 09:35:32;;;;;;;7.10;5.13;;;36.40;41.30;;;;;;4964658;28;20061;-72
2023/09/09 09:38:02;;;;;;;9.10;4.82;;;36.60;41.30;;;;;;4962740;28;20046;-72
2023/09/09 09:40:30;;;;;;;11.18;5.25;;;36.70;40.40;;;;;;4961866;28;20507;-72
2023/09/09 09:42:57;;;;;;;6.97;4.55;;;36.10;40.40;;;;;;4947927;28;20385;-72
2023/09/09 09:45:29;;;;;;;43.45;6.30;;;36.30;40.50;;;;;;4948694;28;21605;-72
2023/09/09 09:47:58;;;;;;;7.63;4.72;;;36.70;41.60;;;;;;4951389;28;20050;-72
2023/09/09 09:50:34;;;;;;;7.68;4.25;;;37.20;39.90;;;;;;4964922;28;20057;-72
2023/09/09 09:53:05;;;;;;;7.20;4.78;;;37.50;39.90;;;;;;4963688;28;20169;-71
2023/09/09 09:55:33;;;;;;;21.33;5.40;;;37.70;40.70;;;;;;4957009;28;20794;-72
2023/09/09 09:58:04;;;;;;;9.57;5.28;;;37.90;39.30;;;;;;4948714;28;20078;-71
2023/09/09 10:00:32;;;;;;;13.48;4.70;;;38.20;38.30;;;;;;4965808;28;20508;-72
2023/09/09 10:03:04;;;;;;;16.88;4.68;;;38.00;39.70;;;;;;4965227;28;20105;-72
2023/09/09 10:05:33;;;;;;;7.28;4.40;;;37.80;38.00;;;;;;4959768;28;20125;-72
2023/09/09 10:08:29;;;;;;;14.45;13.00;;;37.50;37.80;;;;;;4965292;28;20206;-72
2023/09/09 10:11:04;;;;;;;10.85;4.55;;;37.70;38.60;;;;;;4962323;28;20078;-72
2023/09/09 10:13:38;;;;;;;10.65;5.07;;;37.70;36.50;;;;;;4953235;28;20070;-72
2023/09/09 10:16:11;;;;;;;10.10;4.57;;;37.50;38.00;;;;;;4950419;28;20576;-72
2023/09/09 10:18:39;;;;;;;5.97;4.35;;;37.70;38.50;;;;;;4945795;28;20046;-72
2023/09/09 10:21:07;;;;;;;8.55;4.28;;;38.20;37.90;;;;;;4958568;28;20164;-72
2023/09/09 10:23:34;;;;;;;8.23;4.85;;;38.80;37.30;;;;;;4942128;28;20093;-72
2023/09/09 10:26:02;;;;;;;7.78;4.97;;;38.60;38.00;;;;;;4962673;28;20050;-72
2023/09/09 10:28:31;;;;;;;13.30;4.93;;;38.80;36.50;;;;;;4945118;28;20105;-72
2023/09/09 10:31:00;;;;;;;7.97;4.55;;;39.10;37.10;;;;;;4968049;28;20576;-70
2023/09/09 10:33:31;;;;;;;10.00;5.28;;;39.20;37.00;;;;;;4962980;28;20046;-70
2023/09/09 10:35:59;;;;;;;6.65;4.93;;;39.00;36.50;;;;;;4963679;28;20093;-70
2023/09/09 10:38:26;;;;;;;5.88;4.13;;;38.30;38.00;;;;;;4940119;28;20062;-70
2023/09/09 10:40:53;;;;;;;25.27;5.30;;;37.70;39.50;;;;;;4962148;28;20086;-70
2023/09/09 10:43:20;;;;;;;6.93;5.28;;;37.60;38.50;;;;;;4964063;28;20065;-70
2023/09/09 10:45:50;;;;;;;10.45;4.97;;;37.40;38.60;;;;;;4946891;28;20134;-70
2023/09/09 10:48:21;;;;;;;9.95;5.28;;;37.40;38.60;;;;;;4960085;28;20083;-70
2023/09/09 10:50:51;;;;;;;16.48;5.45;;;37.70;38.40;;;;;;4959340;28;20050;-70
2023/09/09 10:53:26;;;;;;;6.53;4.63;;;37.90;38.20;;;;;;4965880;28;20051;-70
2023/09/09 10:56:27;;;;;;;9.73;4.87;;;38.10;37.70;;;;;;4946315;28;20046;-70
2023/09/09 10:58:54;;;;;;;6.40;4.72;;;37.70;37.30;;;;;;4921919;28;20391;-70
2023/09/09 11:01:25;;;;;;;9.95;4.88;;;37.20;37.70;;;;;;4966924;28;20059;-70
2023/09/09 11:03:53;;;;;;;8.63;4.65;;;37.00;39.10;;;;;;4965782;28;20060;-70
2023/09/09 11:06:21;;;;;;;7.55;4.88;;;36.60;39.10;;;;;;4948306;28;20106;-70
2023/09/09 11:08:48;;;;;;;14.27;4.88;;;36.20;38.80;;;;;;4967859;28;20054;-70
2023/09/09 11:11:16;;;;;;;5.82;5.22;;;36.00;40.00;;;;;;4958935;28;20158;-70
2023/09/09 11:13:59;;;;;;;8.48;5.05;;;36.00;39.80;;;;;;4948360;28;20081;-70
2023/09/09 11:16:36;;;;;;;6.30;5.15;;;36.50;39.40;;;;;;4955164;28;20050;-70
2023/09/09 11:19:14;;;;;;;9.85;5.75;;;37.20;39.20;;;;;;4962007;28;20436;-70
2023/09/09 11:21:45;;;;;;;7.28;5.05;;;38.00;37.70;;;;;;4946064;28;20078;-70
2023/09/09 11:24:13;;;;;;;12.32;5.22;;;38.50;37.40;;;;;;4943643;28;20142;-70
2023/09/09 11:26:43;;;;;;;10.02;5.15;;;39.00;36.10;;;;;;4965693;28;20197;-70
2023/09/09 11:29:10;;;;;;;10.52;4.85;;;39.50;36.10;;;;;;4946729;28;20055;-70
2023/09/09 11:31:55;;;;;;;6.78;4.90;;;40.10;35.60;;;;;;4966379;28;20432;-70
2023/09/09 11:34:32;;;;;;;7.80;5.20;;;40.40;34.90;;;;;;4963855;28;20054;-70
2023/09/09 11:37:01;;;;;;;6.72;4.78;;;40.70;33.60;;;;;;4963326;28;20548;-70
2023/09/09 11:39:28;;;;;;;9.60;5.47;;;40.90;34.90;;;;;;4944995;28;20657;-69
2023/09/09 11:41:55;;;;;;;9.05;4.97;;;40.80;34.90;;;;;;4944838;28;20129;-70
2023/09/09 11:44:22;;;;;;;6.72;4.50;;;41.30;34.80;;;;;;4967872;28;20086;-70
2023/09/09 11:46:49;;;;;;;7.43;4.80;;;41.70;33.90;;;;;;4968522;28;20057;-70
2023/09/09 11:49:17;;;;;;;7.80;4.60;;;42.00;33.00;;;;;;4947879;28;20054;-70
2023/09/09 11:51:45;;;;;;;9.13;4.85;;;42.10;34.20;;;;;;4958066;28;20062;-70
2023/09/09 11:54:19;;;;;;;9.60;4.75;;;41.80;34.00;;;;;;4967245;28;20439;-70
2023/09/09 11:56:46;;;;;;;10.27;5.50;;;41.60;33.90;;;;;;4964156;28;20572;-70
2023/09/09 11:59:13;;;;;;;6.18;4.50;;;41.50;34.70;;;;;;4949245;28;20054;-70
2023/09/09 12:01:45;;;;;;;5.95;5.05;;;42.00;33.00;;;;;;4969878;28;20690;-70
2023/09/09 12:04:13;;;;;;;7.68;4.72;;;42.90;33.70;;;;;;4965623;28;20054;-71
2023/09/09 12:06:45;;;;;;;5.78;4.55;;;42.40;32.10;;;;;;4976255;28;20050;-70
2023/09/09 12:09:14;;;;;;;9.27;4.95;;;41.80;32.90;;;;;;4970731;28;20046;-70
2023/09/09 12:11:42;;;;;;;9.45;4.65;;;41.20;34.80;;;;;;4966904;28;20102;-70
2023/09/09 12:14:11;;;;;;;8.45;4.72;;;41.00;34.70;;;;;;4949834;28;20126;-70
2023/09/09 12:16:40;;;;;;;10.48;5.70;;;41.90;34.00;;;;;;4972200;28;20464;-70
2023/09/09 12:19:12;;;;;;;9.20;4.50;;;43.10;33.20;;;;;;4972684;28;20055;-71
2023/09/09 12:21:44;;;;;;;9.15;4.93;;;43.50;32.00;;;;;;4966706;28;20055;-71
2023/09/09 12:24:11;;;;;;;98.88;8.75;;;43.50;33.30;;;;;;4965690;28;20058;-71
2023/09/09 12:26:38;;;;;;;6.75;4.40;;;43.70;32.30;;;;;;4968895;28;20054;-71
2023/09/09 12:29:10;;;;;;;10.13;5.38;;;43.30;31.50;;;;;;4965878;28;20050;-71
2023/09/09 12:31:58;;;;;;;12.93;4.80;;;43.50;33.00;;;;;;4964406;28;20055;-71
2023/09/09 12:34:26;;;;;;;6.20;4.88;;;43.10;31.10;;;;;;4964484;28;20475;-71
2023/09/09 12:36:58;;;;;;;5.97;4.35;;;42.70;31.40;;;;;;4950016;28;20047;-70
2023/09/09 12:39:30;;;;;;;6.22;4.95;;;42.30;31.90;;;;;;4949231;28;20082;-70
2023/09/09 12:42:02;;;;;;;9.20;4.78;;;42.70;32.20;;;;;;4963982;28;20453;-70